Gove, Kansas
Current Conditions -  °F | °C
As of 10:55 AM on Monday 22 Dec 2014 (Local Time) from KCBK Reporting Station
Broken Clouds Broken Clouds  
Wind Chill: 32°   Ceiling: 10000
Heat Index: 41°   Visibility: 10mi
Dew Point: 34°   Wind: 20mph
Humidity: 76%   Direction: 280°W
Pressure: 29.68"   Gusts: NA
Location:  38.96°N, 100.49°W
Report Text: KCBK 221655Z AUTO 28017KT 10SM BKN100 05/01 A2968 RMK AO2
Loading
Personal Weather Stations






























Interactive Weather Map New forecast layout! Learn more

10-Day Weather Forecast

Advertisements
Track Severe Weather on mobile